Terminal Aerodrome Forecast
Issued by NWS Grand Forks, ND

Home | Current Version | Previous Version | Text Only | Print | Product List | Glossary On
Versions: 1 2 3 4 5 6 7 8 9 10 11 12 13 14 15 16 17
821
FTUS43 KFGF 061120
TAFGFK
TAF
KGFK 061120Z 0612/0712 17009KT P6SM SCT200
     FM061700 20014KT P6SM BKN200
     FM062100 20015G25KT P6SM BKN100
     FM070200 24022G30KT P6SM BKN050
     FM071100 28022G29KT 2SM -SN OVC025=

USA.gov is the U.S. government's official web portal to all federal, state and local government web resources and services.